地図

経路データ

SID SEASON NUMBER BASIN SUBBASIN NAME ISO_TIME NATURE LAT LON WMO_WIND WMO_PRES WMO_AGENCY TRACK_TYPE DIST2LAND LANDFALL IFLAG USA_AGENCY USA_ATCF_ID USA_LAT USA_LON USA_RECORD USA_STATUS USA_WIND USA_PRES USA_SSHS USA_R34_NE USA_R34_SE USA_R34_SW USA_R34_NW USA_R50_NE USA_R50_SE USA_R50_SW USA_R50_NW USA_R64_NE USA_R64_SE USA_R64_SW USA_R64_NW USA_POCI USA_ROCI USA_RMW USA_EYE TOKYO_LAT TOKYO_LON TOKYO_GRADE TOKYO_WIND TOKYO_PRES TOKYO_R50_DIR TOKYO_R50_LONG TOKYO_R50_SHORT TOKYO_R30_DIR TOKYO_R30_LONG TOKYO_R30_SHORT TOKYO_LAND CMA_LAT CMA_LON CMA_CAT CMA_WIND CMA_PRES HKO_LAT HKO_LON HKO_CAT HKO_WIND HKO_PRES NEWDELHI_LAT NEWDELHI_LON NEWDELHI_GRADE NEWDELHI_WIND NEWDELHI_PRES NEWDELHI_CI NEWDELHI_DP NEWDELHI_POCI REUNION_LAT REUNION_LON REUNION_TYPE REUNION_WIND REUNION_PRES REUNION_TNUM REUNION_CI REUNION_RMW REUNION_R34_NE REUNION_R34_SE REUNION_R34_SW REUNION_R34_NW REUNION_R50_NE REUNION_R50_SE REUNION_R50_SW REUNION_R50_NW REUNION_R64_NE REUNION_R64_SE REUNION_R64_SW REUNION_R64_NW BOM_LAT BOM_LON BOM_TYPE BOM_WIND BOM_PRES BOM_TNUM BOM_CI BOM_RMW BOM_R34_NE BOM_R34_SE BOM_R34_SW BOM_R34_NW BOM_R50_NE BOM_R50_SE BOM_R50_SW BOM_R50_NW BOM_R64_NE BOM_R64_SE BOM_R64_SW BOM_R64_NW BOM_ROCI BOM_POCI BOM_EYE BOM_POS_METHOD BOM_PRES_METHOD NADI_LAT NADI_LON NADI_CAT NADI_WIND NADI_PRES WELLINGTON_LAT WELLINGTON_LON WELLINGTON_WIND WELLINGTON_PRES DS824_LAT DS824_LON DS824_STAGE DS824_WIND DS824_PRES TD9636_LAT TD9636_LON TD9636_STAGE TD9636_WIND TD9636_PRES TD9635_LAT TD9635_LON TD9635_WIND TD9635_PRES TD9635_ROCI NEUMANN_LAT NEUMANN_LON NEUMANN_CLASS NEUMANN_WIND NEUMANN_PRES MLC_LAT MLC_LON MLC_CLASS MLC_WIND MLC_PRES USA_GUST BOM_GUST BOM_GUST_PER REUNION_GUST REUNION_GUST_PER USA_SEAHGT USA_SEARAD_NE USA_SEARAD_SE USA_SEARAD_SW USA_SEARAD_NW STORM_SPEED STORM_DIR
1964242N14343 1964 72 NA NA DORA 1964-08-28 12:00:00 TS 14.0000 -17.0000 30 hurdat_atl main 21 21 O_____________ hurdat_atl AL061964 14.0000 -17.0000 TD 30 -1 17 271
1964242N14343 1964 72 NA NA DORA 1964-08-28 15:00:00 TS 14.0082 -17.9000 main 86 86 P_____________ AL061964 14.0082 -17.9000 TD 30 -1 17 270
1964242N14343 1964 72 NA NA DORA 1964-08-28 18:00:00 TS 14.0000 -18.8000 30 hurdat_atl main 160 160 O_____________ hurdat_atl AL061964 14.0000 -18.8000 TD 30 -1 17 269
1964242N14343 1964 72 NA NA DORA 1964-08-28 21:00:00 TS 13.9647 -19.7000 main 249 249 P_____________ AL061964 13.9647 -19.7000 TD 30 -1 18 267
1964242N14343 1964 72 NA NA DORA 1964-08-29 00:00:00 TS 13.9000 -20.6000 30 hurdat_atl main 345 345 O_____________ hurdat_atl AL061964 13.9000 -20.6000 TD 30 -1 18 265
1964242N14343 1964 72 NA NA DORA 1964-08-29 03:00:00 TS 13.8072 -21.5000 main 442 442 P_____________ AL061964 13.8072 -21.5000 TD 30 -1 18 263
1964242N14343 1964 72 NA NA DORA 1964-08-29 06:00:00 TS 13.7000 -22.4000 30 hurdat_atl main 540 540 O_____________ hurdat_atl AL061964 13.7000 -22.4000 TD 30 -1 18 263
1964242N14343 1964 72 NA NA DORA 1964-08-29 09:00:00 TS 13.5996 -23.2924 main 637 637 P_____________ AL061964 13.5996 -23.2924 TD 30 -1 18 263
1964242N14343 1964 72 NA NA DORA 1964-08-29 12:00:00 TS 13.5000 -24.2000 30 1007 hurdat_atl main 735 735 O_____________ hurdat_atl AL061964 13.5000 -24.2000 TD 30 1007 -1 18 264
1964242N14343 1964 72 NA NA DORA 1964-08-29 15:00:00 TS 13.4071 -25.1349 main 832 832 P_____________ AL061964 13.4071 -25.1349 TD 30 -1 19 264
1964242N14343 1964 72 NA NA DORA 1964-08-29 18:00:00 TS 13.3000 -26.1000 30 hurdat_atl main 941 941 O_____________ hurdat_atl AL061964 13.3000 -26.1000 TD 30 -1 19 263
1964242N14343 1964 72 NA NA DORA 1964-08-29 21:00:00 TS 13.1572 -27.0925 main 1049 1049 P_____________ AL061964 13.1572 -27.0925 TD 30 -1 20 261
1964242N14343 1964 72 NA NA DORA 1964-08-30 00:00:00 TS 13.0000 -28.1000 30 hurdat_atl main 1160 1160 O_____________ hurdat_atl AL061964 13.0000 -28.1000 TD 30 -1 20 261
1964242N14343 1964 72 NA NA DORA 1964-08-30 03:00:00 TS 12.8497 -29.1074 main 1271 1271 P_____________ AL061964 12.8497 -29.1074 TD 30 -1 20 261
1964242N14343 1964 72 NA NA DORA 1964-08-30 06:00:00 TS 12.7000 -30.1000 30 hurdat_atl main 1379 1379 O_____________ hurdat_atl AL061964 12.7000 -30.1000 TD 30 -1 19 261
1964242N14343 1964 72 NA NA DORA 1964-08-30 09:00:00 TS 12.5570 -31.0498 main 1478 1478 P_____________ AL061964 12.5570 -31.0498 TD 30 -1 19 261
1964242N14343 1964 72 NA NA DORA 1964-08-30 12:00:00 TS 12.4000 -32.0000 30 hurdat_atl main 1588 1588 O_____________ hurdat_atl AL061964 12.4000 -32.0000 TD 30 -1 19 260
1964242N14343 1964 72 NA NA DORA 1964-08-30 15:00:00 TS 12.2072 -32.9925 main 1699 1699 P_____________ AL061964 12.2072 -32.9925 TD 30 -1 20 258
1964242N14343 1964 72 NA NA DORA 1964-08-30 18:00:00 TS 12.0000 -34.0000 30 hurdat_atl main 1788 1734 O_____________ hurdat_atl AL061964 12.0000 -34.0000 TD 30 -1 20 258
1964242N14343 1964 72 NA NA DORA 1964-08-30 21:00:00 TS 11.7997 -34.9999 main 1730 1681 P_____________ AL061964 11.7997 -34.9999 TD 30 -1 20 258
1964242N14343 1964 72 NA NA DORA 1964-08-31 00:00:00 TS 11.6000 -36.0000 30 hurdat_atl main 1678 1634 O_____________ hurdat_atl AL061964 11.6000 -36.0000 TD 30 -1 20 258
1964242N14343 1964 72 NA NA DORA 1964-08-31 03:00:00 TS 11.3847 -37.0000 main 1631 1593 P_____________ AL061964 11.3847 -37.0000 TD 30 -1 20 258
1964242N14343 1964 72 NA NA DORA 1964-08-31 06:00:00 TS 11.2000 -38.0000 30 hurdat_atl main 1592 1555 O_____________ hurdat_atl AL061964 11.2000 -38.0000 TD 30 -1 20 261
1964242N14343 1964 72 NA NA DORA 1964-08-31 09:00:00 TS 11.0697 -39.0074 main 1555 1463 P_____________ AL061964 11.0697 -39.0074 TD 30 -1 20 264
1964242N14343 1964 72 NA NA DORA 1964-08-31 12:00:00 TS 11.0000 -40.0000 30 hurdat_atl main 1454 1370 O_____________ hurdat_atl AL061964 11.0000 -40.0000 TD 30 -1 19 267
1964242N14343 1964 72 NA NA DORA 1964-08-31 15:00:00 TS 10.9697 -40.9650 main 1361 1288 P_____________ AL061964 10.9697 -40.9650 TD 32 -1 19 270
1964242N14343 1964 72 NA NA DORA 1964-08-31 18:00:00 TS 11.0000 -41.9000 35 hurdat_atl main 1279 1207 O_____________ hurdat_atl AL061964 11.0000 -41.9000 TS 35 0 18 273
1964242N14343 1964 72 NA NA DORA 1964-08-31 21:00:00 TS 11.0772 -42.8150 main 1207 1139 P_____________ AL061964 11.0772 -42.8150 TS 37 0 18 276
1964242N14343 1964 72 NA NA DORA 1964-09-01 00:00:00 TS 11.2000 -43.7000 40 hurdat_atl main 1139 1084 O_____________ hurdat_atl AL061964 11.2000 -43.7000 TS 40 0 17 279
1964242N14343 1964 72 NA NA DORA 1964-09-01 03:00:00 TS 11.3348 -44.5651 main 1077 1035 P_____________ AL061964 11.3348 -44.5651 TS 42 0 17 280
1964242N14343 1964 72 NA NA DORA 1964-09-01 06:00:00 TS 11.5000 -45.4000 45 hurdat_atl main 1035 998 O_____________ hurdat_atl AL061964 11.5000 -45.4000 TS 45 0 17 282
1964242N14343 1964 72 NA NA DORA 1964-09-01 09:00:00 TS 11.6773 -46.2152 main 1001 970 P_____________ AL061964 11.6773 -46.2152 TS 47 0 16 284
1964242N14343 1964 72 NA NA DORA 1964-09-01 12:00:00 TS 11.9000 -47.0000 50 hurdat_atl main 970 942 O_____________ hurdat_atl AL061964 11.9000 -47.0000 TS 50 0 16 288
1964242N14343 1964 72 NA NA DORA 1964-09-01 15:00:00 TS 12.1699 -47.7726 main 945 929 P_____________ AL061964 12.1699 -47.7726 TS 52 0 16 292
1964242N14343 1964 72 NA NA DORA 1964-09-01 18:00:00 TS 12.5000 -48.5000 55 998 hurdat_atl main 933 928 O_____________ hurdat_atl AL061964 12.5000 -48.5000 TS 55 998 0 15 297
1964242N14343 1964 72 NA NA DORA 1964-09-01 21:00:00 TS 12.8696 -49.1504 main 938 934 P_____________ AL061964 12.8696 -49.1504 TS 55 0 15 302
1964242N14343 1964 72 NA NA DORA 1964-09-02 00:00:00 TS 13.3000 -49.8000 55 hurdat_atl main 954 950 O_____________ hurdat_atl AL061964 13.3000 -49.8000 TS 55 0 16 304
1964242N14343 1964 72 NA NA DORA 1964-09-02 03:00:00 TS 13.7698 -50.5204 main 973 968 P_____________ AL061964 13.7698 -50.5204 TS 57 0 18 304
1964242N14343 1964 72 NA NA DORA 1964-09-02 06:00:00 TS 14.3000 -51.3000 60 hurdat_atl main 992 992 O_____________ hurdat_atl AL061964 14.3000 -51.3000 TS 60 0 19 305
1964242N14343 1964 72 NA NA DORA 1964-09-02 09:00:00 TS 14.8774 -52.1427 main 1033 1019 P_____________ AL061964 14.8774 -52.1427 TS 60 0 20 306
1964242N14343 1964 72 NA NA DORA 1964-09-02 12:00:00 TS 15.5000 -53.0000 60 996 hurdat_atl main 1019 986 O_____________ hurdat_atl AL061964 15.5000 -53.0000 TS 60 996 0 21 309
1964242N14343 1964 72 NA NA DORA 1964-09-02 15:00:00 TS 16.1722 -53.8150 main 992 971 P_____________ AL061964 16.1722 -53.8150 TS 62 994 0 20 310
1964242N14343 1964 72 NA NA DORA 1964-09-02 18:00:00 TS 16.8000 -54.6000 65 hurdat_atl main 971 952 I_____________ hurdat_atl AL061964 16.8000 -54.6000 HU 65 992 1 19 307
1964242N14343 1964 72 NA NA DORA 1964-09-02 21:00:00 TS 17.3099 -55.3877 main 954 941 P_____________ AL061964 17.3099 -55.3877 HU 67 990 1 17 302
1964242N14343 1964 72 NA NA DORA 1964-09-03 00:00:00 TS 17.7000 -56.1000 70 989 hurdat_atl main 944 935 O_____________ hurdat_atl AL061964 17.7000 -56.1000 HU 70 989 1 14 298
1964242N14343 1964 72 NA NA DORA 1964-09-03 03:00:00 TS 17.9797 -56.7030 main 939 887 P_____________ AL061964 17.9797 -56.7030 HU 72 987 1 12 296
1964242N14343 1964 72 NA NA DORA 1964-09-03 06:00:00 TS 18.2000 -57.2000 75 hurdat_atl main 887 844 I_____________ hurdat_atl AL061964 18.2000 -57.2000 HU 75 986 1 10 297
1964242N14343 1964 72 NA NA DORA 1964-09-03 09:00:00 TS 18.4198 -57.6229 main 844 801 P_____________ AL061964 18.4198 -57.6229 HU 75 985 1 9 303
1964242N14343 1964 72 NA NA DORA 1964-09-03 12:00:00 TS 18.7000 -58.0000 75 984 hurdat_atl main 801 762 O_____________ hurdat_atl AL061964 18.7000 -58.0000 HU 75 984 1 10 313
1964242N14343 1964 72 NA NA DORA 1964-09-03 15:00:00 TS 19.1200 -58.4149 main 762 725 P_____________ AL061964 19.1200 -58.4149 HU 77 983 1 12 320
1964242N14343 1964 72 NA NA DORA 1964-09-03 18:00:00 TS 19.6000 -58.8000 80 hurdat_atl main 727 705 I_____________ hurdat_atl AL061964 19.6000 -58.8000 HU 80 982 1 12 325
1964242N14343 1964 72 NA NA DORA 1964-09-03 21:00:00 TS 20.0724 -59.1226 main 708 687 P_____________ AL061964 20.0724 -59.1226 HU 80 981 1 11 328
1964242N14343 1964 72 NA NA DORA 1964-09-04 00:00:00 TS 20.5000 -59.4000 80 981 hurdat_atl main 691 673 O_____________ hurdat_atl AL061964 20.5000 -59.4000 HU 80 981 1 9 326
1964242N14343 1964 72 NA NA DORA 1964-09-04 03:00:00 TS 20.8300 -59.6652 main 673 663 P_____________ AL061964 20.8300 -59.6652 HU 80 979 1 8 322
1964242N14343 1964 72 NA NA DORA 1964-09-04 06:00:00 TS 21.1000 -59.9000 80 978 hurdat_atl main 668 660 O_____________ hurdat_atl AL061964 21.1000 -59.9000 HU 80 978 1 7 322
1964242N14343 1964 72 NA NA DORA 1964-09-04 09:00:00 TS 21.3499 -60.1002 main 660 653 P_____________ AL061964 21.3499 -60.1002 HU 80 977 1 6 323
1964242N14343 1964 72 NA NA DORA 1964-09-04 12:00:00 TS 21.6000 -60.3000 80 976 hurdat_atl main 659 654 O_____________ hurdat_atl AL061964 21.6000 -60.3000 HU 80 976 1 7 323
1964242N14343 1964 72 NA NA DORA 1964-09-04 15:00:00 TS 21.9000 -60.5499 main 660 650 P_____________ AL061964 21.9000 -60.5499 HU 82 974 1 8 322
1964242N14343 1964 72 NA NA DORA 1964-09-04 18:00:00 TS 22.2000 -60.8000 85 973 hurdat_atl main 656 655 O_____________ hurdat_atl AL061964 22.2000 -60.8000 HU 85 973 2 7 322
1964242N14343 1964 72 NA NA DORA 1964-09-04 21:00:00 TS 22.4499 -61.0077 main 655 655 P_____________ AL061964 22.4499 -61.0077 HU 85 2 6 324
1964242N14343 1964 72 NA NA DORA 1964-09-05 00:00:00 TS 22.7000 -61.2000 85 hurdat_atl main 664 664 O_____________ hurdat_atl AL061964 22.7000 -61.2000 HU 85 2 6 326
1964242N14343 1964 72 NA NA DORA 1964-09-05 03:00:00 TS 22.9849 -61.3927 main 674 674 P_____________ AL061964 22.9849 -61.3927 HU 87 2 7 328
1964242N14343 1964 72 NA NA DORA 1964-09-05 06:00:00 TS 23.3000 -61.6000 90 hurdat_atl main 687 687 O_____________ hurdat_atl AL061964 23.3000 -61.6000 HU 90 2 8 329
1964242N14343 1964 72 NA NA DORA 1964-09-05 09:00:00 TS 23.6349 -61.8203 main 702 702 P_____________ AL061964 23.6349 -61.8203 HU 90 2 8 327
1964242N14343 1964 72 NA NA DORA 1964-09-05 12:00:00 TS 24.0000 -62.1000 90 971 hurdat_atl main 723 723 O_____________ hurdat_atl AL061964 24.0000 -62.1000 HU 90 971 2 10 322
1964242N14343 1964 72 NA NA DORA 1964-09-05 15:00:00 TS 24.4001 -62.4849 main 743 743 P_____________ AL061964 24.4001 -62.4849 HU 95 965 2 11 318
1964242N14343 1964 72 NA NA DORA 1964-09-05 18:00:00 TS 24.8000 -62.9000 100 960 hurdat_atl main 768 768 O_____________ hurdat_atl AL061964 24.8000 -62.9000 HU 100 960 3 10 318
1964242N14343 1964 72 NA NA DORA 1964-09-05 21:00:00 TS 25.1648 -63.2503 main 796 796 P_____________ AL061964 25.1648 -63.2503 HU 102 955 3 9 318
1964242N14343 1964 72 NA NA DORA 1964-09-06 00:00:00 TS 25.5000 -63.6000 105 hurdat_atl main 820 820 I_____________ hurdat_atl AL061964 25.5000 -63.6000 HU 105 951 3 9 314
1964242N14343 1964 72 NA NA DORA 1964-09-06 03:00:00 TS 25.8074 -63.9927 main 843 843 P_____________ AL061964 25.8074 -63.9927 HU 110 946 3 9 310
1964242N14343 1964 72 NA NA DORA 1964-09-06 06:00:00 TS 26.1000 -64.4000 115 942 hurdat_atl main 869 869 O_____________ hurdat_atl AL061964 26.1000 -64.4000 HU 115 942 4 9 310
1964242N14343 1964 72 NA NA DORA 1964-09-06 09:00:00 TS 26.4149 -64.8000 main 898 898 P_____________ AL061964 26.4149 -64.8000 HU 112 946 3 9 310
1964242N14343 1964 72 NA NA DORA 1964-09-06 12:00:00 TS 26.7000 -65.2000 110 hurdat_atl main 927 922 I_____________ hurdat_atl AL061964 26.7000 -65.2000 HU 110 950 3 9 305
1964242N14343 1964 72 NA NA DORA 1964-09-06 15:00:00 TS 26.9148 -65.5928 main 929 925 P_____________ AL061964 26.9148 -65.5928 HU 105 954 3 8 299
1964242N14343 1964 72 NA NA DORA 1964-09-06 18:00:00 TS 27.1000 -66.0000 100 958 hurdat_atl main 932 927 O_____________ hurdat_atl AL061964 27.1000 -66.0000 HU 100 958 3 9 297
1964242N14343 1964 72 NA NA DORA 1964-09-06 21:00:00 TS 27.3074 -66.4425 main 935 930 P_____________ AL061964 27.3074 -66.4425 HU 97 3 9 297
1964242N14343 1964 72 NA NA DORA 1964-09-07 00:00:00 TS 27.5000 -66.9000 95 hurdat_atl main 936 918 O_____________ hurdat_atl AL061964 27.5000 -66.9000 HU 95 2 9 294
1964242N14343 1964 72 NA NA DORA 1964-09-07 03:00:00 TS 27.6646 -67.3277 main 927 905 P_____________ AL061964 27.6646 -67.3277 HU 95 2 9 291
1964242N14343 1964 72 NA NA DORA 1964-09-07 06:00:00 TS 27.8000 -67.8000 95 hurdat_atl main 905 886 O_____________ hurdat_atl AL061964 27.8000 -67.8000 HU 95 2 10 285
1964242N14343 1964 72 NA NA DORA 1964-09-07 09:00:00 TS 27.9074 -68.3702 main 881 860 P_____________ AL061964 27.9074 -68.3702 HU 95 2 11 281
1964242N14343 1964 72 NA NA DORA 1964-09-07 12:00:00 TS 28.0000 -69.0000 95 959 hurdat_atl main 860 843 O_____________ hurdat_atl AL061964 28.0000 -69.0000 HU 95 959 2 11 280
1964242N14343 1964 72 NA NA DORA 1964-09-07 15:00:00 TS 28.1072 -69.6350 main 843 828 P_____________ AL061964 28.1072 -69.6350 HU 95 957 2 12 280
1964242N14343 1964 72 NA NA DORA 1964-09-07 18:00:00 TS 28.2000 -70.3000 95 956 hurdat_atl main 828 776 O_____________ hurdat_atl AL061964 28.2000 -70.3000 HU 95 956 2 12 277
1964242N14343 1964 72 NA NA DORA 1964-09-07 21:00:00 TS 28.2499 -71.0003 main 776 720 P_____________ AL061964 28.2499 -71.0003 HU 95 2 12 275
1964242N14343 1964 72 NA NA DORA 1964-09-08 00:00:00 TS 28.3000 -71.7000 95 hurdat_atl main 720 674 O_____________ hurdat_atl AL061964 28.3000 -71.7000 HU 95 2 12 277
1964242N14343 1964 72 NA NA DORA 1964-09-08 03:00:00 TS 28.3994 -72.3424 main 674 624 P_____________ AL061964 28.3994 -72.3424 HU 95 2 12 280
1964242N14343 1964 72 NA NA DORA 1964-09-08 06:00:00 TS 28.5000 -73.0000 95 hurdat_atl main 624 578 O_____________ hurdat_atl AL061964 28.5000 -73.0000 HU 95 2 12 278
1964242N14343 1964 72 NA NA DORA 1964-09-08 09:00:00 TS 28.5648 -73.7350 main 578 522 P_____________ AL061964 28.5648 -73.7350 HU 92 2 13 274
1964242N14343 1964 72 NA NA DORA 1964-09-08 12:00:00 TS 28.6000 -74.5000 90 962 hurdat_atl main 522 479 O_____________ hurdat_atl AL061964 28.6000 -74.5000 HU 90 962 2 13 271
1964242N14343 1964 72 NA NA DORA 1964-09-08 15:00:00 TS 28.5922 -75.2580 main 473 438 P_____________ AL061964 28.5922 -75.2580 HU 90 962 2 13 270
1964242N14343 1964 72 NA NA DORA 1964-09-08 18:00:00 TS 28.6000 -76.0000 90 963 hurdat_atl main 438 371 O_____________ hurdat_atl AL061964 28.6000 -76.0000 HU 90 963 2 13 274
1964242N14343 1964 72 NA NA DORA 1964-09-08 21:00:00 TS 28.6773 -76.7299 main 371 303 P_____________ AL061964 28.6773 -76.7299 HU 87 965 2 12 279
1964242N14343 1964 72 NA NA DORA 1964-09-09 00:00:00 TS 28.8000 -77.4000 85 hurdat_atl main 303 247 I_____________ hurdat_atl AL061964 28.8000 -77.4000 HU 85 967 2 11 284
1964242N14343 1964 72 NA NA DORA 1964-09-09 03:00:00 TS 28.9421 -77.9875 main 247 205 P_____________ AL061964 28.9421 -77.9875 HU 82 969 1 10 287
1964242N14343 1964 72 NA NA DORA 1964-09-09 06:00:00 TS 29.1000 -78.5000 80 972 hurdat_atl main 205 165 O_____________ hurdat_atl AL061964 29.1000 -78.5000 HU 80 972 1 9 289
1964242N14343 1964 72 NA NA DORA 1964-09-09 09:00:00 TS 29.2499 -78.9876 main 165 146 P_____________ AL061964 29.2499 -78.9876 HU 80 971 1 8 291
1964242N14343 1964 72 NA NA DORA 1964-09-09 12:00:00 TS 29.4000 -79.4000 80 970 hurdat_atl main 146 124 O_____________ hurdat_atl AL061964 29.4000 -79.4000 HU 80 970 1 7 296
1964242N14343 1964 72 NA NA DORA 1964-09-09 15:00:00 TS 29.5648 -79.7226 main 128 109 P_____________ AL061964 29.5648 -79.7226 HU 85 966 2 6 300
1964242N14343 1964 72 NA NA DORA 1964-09-09 18:00:00 TS 29.7000 -80.0000 90 962 hurdat_atl main 109 89 O_____________ hurdat_atl AL061964 29.7000 -80.0000 HU 90 962 2 5 292
1964242N14343 1964 72 NA NA DORA 1964-09-09 21:00:00 TS 29.7649 -80.2927 main 89 62 P_____________ AL061964 29.7649 -80.2927 HU 90 963 2 5 281
1964242N14343 1964 72 NA NA DORA 1964-09-10 00:00:00 TS 29.8000 -80.6000 90 964 hurdat_atl main 62 36 O_____________ hurdat_atl AL061964 29.8000 -80.6000 HU 90 964 2 6 279
1964242N14343 1964 72 NA NA DORA 1964-09-10 03:00:00 TS 29.8499 -80.9350 main 36 9 P_____________ AL061964 29.8499 -80.9350 HU 92 965 2 6 279
1964242N14343 1964 72 NA NA DORA 1964-09-10 06:00:00 TS 29.9000 -81.3000 95 966 hurdat_atl main 9 0 O_____________ hurdat_atl AL061964 29.9000 -81.3000 L HU 95 966 2 7 279
1964242N14343 1964 72 NA NA DORA 1964-09-10 09:00:00 TS 29.9574 -81.6924 main 0 0 P_____________ AL061964 29.9574 -81.6924 HU 80 1 7 278
1964242N14343 1964 72 NA NA DORA 1964-09-10 12:00:00 TS 30.0000 -82.1000 65 hurdat_atl main 0 0 O_____________ hurdat_atl AL061964 30.0000 -82.1000 HU 65 1 7 273
1964242N14343 1964 72 NA NA DORA 1964-09-10 15:00:00 TS 30.0000 -82.5152 main 0 0 P_____________ AL061964 30.0000 -82.5152 HU 60 0 7 270
1964242N14343 1964 72 NA NA DORA 1964-09-10 18:00:00 TS 30.0000 -82.9000 55 hurdat_atl main 0 0 O_____________ hurdat_atl AL061964 30.0000 -82.9000 TS 55 0 6 274
1964242N14343 1964 72 NA NA DORA 1964-09-10 21:00:00 TS 30.0424 -83.2225 main 0 0 P_____________ AL061964 30.0424 -83.2225 TS 52 0 5 281
1964242N14343 1964 72 NA NA DORA 1964-09-11 00:00:00 TS 30.1000 -83.5000 50 hurdat_atl main 0 0 O_____________ hurdat_atl AL061964 30.1000 -83.5000 TS 50 0 5 282
1964242N14343 1964 72 NA NA DORA 1964-09-11 03:00:00 TS 30.1424 -83.7651 main 0 0 P_____________ AL061964 30.1424 -83.7651 TS 47 0 4 283
1964242N14343 1964 72 NA NA DORA 1964-09-11 06:00:00 TS 30.2000 -84.0000 45 990 hurdat_atl main 0 0 O_____________ hurdat_atl AL061964 30.2000 -84.0000 TS 45 990 0 4 290
1964242N14343 1964 72 NA NA DORA 1964-09-11 09:00:00 TS 30.2850 -84.2150 main 0 0 P_____________ AL061964 30.2850 -84.2150 TS 45 0 4 300
1964242N14343 1964 72 NA NA DORA 1964-09-11 12:00:00 TS 30.4000 -84.4000 45 hurdat_atl main 0 0 O_____________ hurdat_atl AL061964 30.4000 -84.4000 TS 45 0 4 309
1964242N14343 1964 72 NA NA DORA 1964-09-11 15:00:00 TS 30.5350 -84.5799 main 0 0 P_____________ AL061964 30.5350 -84.5799 TS 42 0 4 319
1964242N14343 1964 72 NA NA DORA 1964-09-11 18:00:00 TS 30.7000 -84.7000 40 hurdat_atl main 0 0 O_____________ hurdat_atl AL061964 30.7000 -84.7000 TS 40 0 4 340
1964242N14343 1964 72 NA NA DORA 1964-09-11 21:00:00 TS 30.9075 -84.7301 main 0 0 P_____________ AL061964 30.9075 -84.7301 TS 40 0 4 0
1964242N14343 1964 72 NA NA DORA 1964-09-12 00:00:00 TS 31.1000 -84.7000 40 993 hurdat_atl main 0 0 O_____________ hurdat_atl AL061964 31.1000 -84.7000 TS 40 993 0 3 6
1964242N14343 1964 72 NA NA DORA 1964-09-12 03:00:00 TS 31.2224 -84.6800 main 0 0 P_____________ AL061964 31.2224 -84.6800 TS 40 994 0 2 25
1964242N14343 1964 72 NA NA DORA 1964-09-12 06:00:00 TS 31.3000 -84.6000 40 995 hurdat_atl main 0 0 O_____________ hurdat_atl AL061964 31.3000 -84.6000 TS 40 995 0 2 56
1964242N14343 1964 72 NA NA DORA 1964-09-12 09:00:00 TS 31.3499 -84.4524 main 0 0 P_____________ AL061964 31.3499 -84.4524 TS 42 995 0 4 74
1964242N14343 1964 72 NA NA DORA 1964-09-12 12:00:00 TS 31.4000 -84.2000 45 996 hurdat_atl main 0 0 O_____________ hurdat_atl AL061964 31.4000 -84.2000 TS 45 996 0 5 77
1964242N14343 1964 72 NA NA DORA 1964-09-12 15:00:00 TS 31.4699 -83.8521 main 0 0 P_____________ AL061964 31.4699 -83.8521 TS 50 995 0 7 74
1964242N14343 1964 72 NA NA DORA 1964-09-12 18:00:00 TS 31.6000 -83.4000 55 995 hurdat_atl main 0 0 O_____________ hurdat_atl AL061964 31.6000 -83.4000 TS 55 995 0 9 67
1964242N14343 1964 72 NA NA DORA 1964-09-12 21:00:00 TS 31.8198 -82.8874 main 0 0 P_____________ AL061964 31.8198 -82.8874 TS 57 995 0 11 62
1964242N14343 1964 72 NA NA DORA 1964-09-13 00:00:00 TS 32.1000 -82.3000 60 996 hurdat_atl main 0 0 O_____________ hurdat_atl AL061964 32.1000 -82.3000 TS 60 996 0 11 61
1964242N14343 1964 72 NA NA DORA 1964-09-13 03:00:00 TS 32.3692 -81.7013 main 0 0 P_____________ AL061964 32.3692 -81.7013 TS 60 0 13 61
1964242N14343 1964 72 NA NA DORA 1964-09-13 06:00:00 TS 32.7000 -81.0000 60 hurdat_atl main 0 0 O_____________ hurdat_atl AL061964 32.7000 -81.0000 TS 60 0 15 60
1964242N14343 1964 72 NA NA DORA 1964-09-13 09:00:00 TS 33.1198 -80.1521 main 0 0 P_____________ AL061964 33.1198 -80.1521 TS 60 0 18 59
1964242N14343 1964 72 NA NA DORA 1964-09-13 12:00:00 ET 33.6000 -79.2000 60 hurdat_atl main 0 0 O_____________ hurdat_atl AL061964 33.6000 -79.2000 EX 60 -4 19 59
1964242N14343 1964 72 NA NA DORA 1964-09-13 15:00:00 ET 34.0922 -78.2069 main 0 0 P_____________ AL061964 34.0922 -78.2069 EX 60 -4 19 59
1964242N14343 1964 72 NA NA DORA 1964-09-13 18:00:00 ET 34.6000 -77.2000 60 hurdat_atl main 9 0 O_____________ hurdat_atl AL061964 34.6000 -77.2000 EX 60 -4 19 59
1964242N14343 1964 72 NA NA DORA 1964-09-13 21:00:00 ET 35.0764 -76.2477 main 22 14 P_____________ AL061964 35.0764 -76.2477 EX 60 -4 18 57
1964242N14343 1964 72 NA NA DORA 1964-09-14 00:00:00 ET 35.6000 -75.3000 60 998 hurdat_atl main 28 28 O_____________ hurdat_atl AL061964 35.6000 -75.3000 EX 60 998 -4 19 54
1964242N14343 1964 72 NA NA DORA 1964-09-14 03:00:00 ET 36.2038 -74.3277 main 116 116 P_____________ AL061964 36.2038 -74.3277 EX 60 -4 21 51
1964242N14343 1964 72 NA NA DORA 1964-09-14 06:00:00 ET 36.9000 -73.3000 60 hurdat_atl main 218 218 O_____________ hurdat_atl AL061964 36.9000 -73.3000 EX 60 -4 22 49
1964242N14343 1964 72 NA NA DORA 1964-09-14 09:00:00 ET 37.6532 -72.2137 main 262 262 P_____________ AL061964 37.6532 -72.2137 EX 60 -4 24 49
1964242N14343 1964 72 NA NA DORA 1964-09-14 12:00:00 ET 38.5000 -71.0000 60 hurdat_atl main 290 248 O_____________ hurdat_atl AL061964 38.5000 -71.0000 EX 60 -4 27 49
1964242N14343 1964 72 NA NA DORA 1964-09-14 15:00:00 ET 39.4188 -69.6220 main 251 210 P_____________ AL061964 39.4188 -69.6220 EX 60 -4 29 50
1964242N14343 1964 72 NA NA DORA 1964-09-14 18:00:00 ET 40.4000 -68.1000 60 hurdat_atl main 214 213 O_____________ hurdat_atl AL061964 40.4000 -68.1000 EX 60 -4 31 50
1964242N14343 1964 72 NA NA DORA 1964-09-14 21:00:00 ET 41.3989 -66.4773 main 242 135 P_____________ AL061964 41.3989 -66.4773 EX 57 -4 32 51
1964242N14343 1964 72 NA NA DORA 1964-09-15 00:00:00 ET 42.4000 -64.8000 55 hurdat_atl main 128 117 O_____________ hurdat_atl AL061964 42.4000 -64.8000 EX 55 -4 32 51
1964242N14343 1964 72 NA NA DORA 1964-09-15 03:00:00 ET 43.3710 -63.1242 main 118 81 P_____________ AL061964 43.3710 -63.1242 EX 55 -4 31 52
1964242N14343 1964 72 NA NA DORA 1964-09-15 06:00:00 ET 44.3000 -61.5000 55 hurdat_atl main 83 57 O_____________ hurdat_atl AL061964 44.3000 -61.5000 EX 55 -4 29 52
1964242N14343 1964 72 NA NA DORA 1964-09-15 09:00:00 ET 45.1698 -59.9644 main 54 54 P_____________ AL061964 45.1698 -59.9644 EX 55 -4 27 51
1964242N14343 1964 72 NA NA DORA 1964-09-15 12:00:00 ET 46.0000 -58.5000 55 hurdat_atl main 102 89 O_____________ hurdat_atl AL061964 46.0000 -58.5000 EX 55 -4 26 52
1964242N14343 1964 72 NA NA DORA 1964-09-15 15:00:00 ET 46.7837 -57.0142 main 78 0 P_____________ AL061964 46.7837 -57.0142 EX 55 -4 25 51
1964242N14343 1964 72 NA NA DORA 1964-09-15 18:00:00 ET 47.6000 -55.6000 55 hurdat_atl main 0 0 O_____________ hurdat_atl AL061964 47.6000 -55.6000 EX 55 -4 25 47
1964242N14343 1964 72 NA NA DORA 1964-09-15 21:00:00 ET 48.5198 -54.2834 main 0 0 P_____________ AL061964 48.5198 -54.2834 EX 55 -4 26 42
1964242N14343 1964 72 NA NA DORA 1964-09-16 00:00:00 ET 49.5000 -53.0000 55 hurdat_atl main 42 O_____________ hurdat_atl AL061964 49.5000 -53.0000 EX 55 -4 26 40

IBTrACS Databaseについて

本データベースは、米国NOAAが公開する1842年以降の世界の熱帯低気圧のベストトラックデータアーカイブInternational Best Track Archive for Climate Stewardship (IBTrACS)を、ウェブで閲覧しやすい形式に変換したものです。

最終更新日:2021-12-08